Aeroporto :
LOGIN :

Iscrizione | Disclaimer

   EN    FR    IT 

 










Sommario :    VFR   VFR Marginale   IFR   IFR Intensivo   IFR Molto Intensivo
Visibilità : 
Base nubi : 
>= 8 km
>= 3000ft
5 / 8 km
1000 / 3000 ft
1500m / 5 km
500 / 1000 ft
800 / 1500m
200 / 500 ft
< 800m
< 200 ft
Simboli :   Temporali  Nebbia  Neve Forte  Precipitazioni Forti  Vento > 20 kt
SIGMETs :   Varie  Temporali  Ghiacco  Turbolenza  Onda orograficha  Ceneri Vulcaniche






- Altitudine del aeroporto : 86 ft
- Codice IATA : HAU


ENHD - Haugesund

ULTIMO METAR :
  • 210250Z AUTO 26020KT 7000 OVC011/// 09/07 Q1027

METARs OBSOLETI :
  • 210220Z AUTO 25020KT 7000 BKN009/// OVC010/// 09/07 Q1027
  • 210150Z AUTO 24018KT 7000 OVC011/// 09/07 Q1027
  • 210120Z AUTO 24018KT 7000 OVC013/// 09/07 Q1028
  • 210050Z AUTO 24020KT 8000 BKN015/// OVC019/// 09/07 Q1028
  • 210020Z AUTO 24019KT 9000 OVC018/// 09/07 Q1028

TAF TAF ENHD
Valido dal 21 a 03 ore il 21 a 12 ore UTC


210200Z 2103/2112 24020KT 4500 -RA BKN010
TEMPO 2103/2106 2000 DZRA BR BKN005
BECMG 2105/2107 32017KT 9999 SCT018 BKN030



MetMap, La meteo Aeronautica in un colpo d'occhio ! - Copyright ORBIFLY Dicembre 2007 - Disclaimer

ORBIFLY MET'MAP TEAM :

Programmazione e sviluppo : Alexandra Zaïnal
Concezione : Baudouin d'Aumeries
Aiuto per la programmazione : Marc-Olivier Méhu
Supporto tecnico e logistico : Manuel Goepfert
Aiuto per la traduzione : Arnaldo La Scala

Contatto : metmap@orbifly.com




FONTI E CREDITI :

   NOAA